Dan Fighter — OVUE2 — position and weather

sailwx.info

Track history (hours):
 
Tides and Currents Weather Stations Pressure Air Temp Water Temp Dewpoint Dewpoint Depression Visibility Wind Speed Wind Dir Waves Ship Positions

Dan Fighter

Last reported at 2015-Aug-29 10:33 UTC. Time now 2015-Aug-30 18:08 UTC.
Position N 57°45' W 002°04'.

Length 64 m; draft 3.1 m.

Type: Cargo ship. MMSI: 220386978.

Date/timePositionNaut miles runAvg speedWind from/ knotsBaromVisibWave heightAir tempDewpointWater temp
2015-Aug-29 10:33N 57°45' W 002°04'7 6.8
2015-Aug-29 09:34N 57°42' W 001°52'7 6.9
2015-Aug-29 08:34N 57°37' W 001°44'9 8.8
2015-Aug-29 07:34N 57°28' W 001°40'138 8.9
2015-Aug-28 16:08N 55°12' W 001°04'5 8.4
2015-Aug-28 15:33N 55°09' W 000°58'8 7.8
2015-Aug-28 14:31N 55°02' W 000°50'7 7.7
2015-Aug-28 13:33N 54°55' W 000°45'8 8.0
2015-Aug-28 12:31N 54°48' W 000°39'8 8.6
2015-Aug-28 11:33N 54°40' W 000°33'9 9.3
2015-Aug-28 10:34N 54°32' W 000°26'1010.1
2015-Aug-28 09:34N 54°23' W 000°18'1010.5
2015-Aug-28 08:34N 54°14' W 000°09'1110.9
2015-Aug-28 07:33N 54°05' E 000°02'10 9.7
2015-Aug-28 06:34N 53°59' E 000°14'8 8.4
2015-Aug-28 05:33N 53°53' E 000°25'47 7.8
2015-Aug-27 23:32N 53°16' E 001°14'1010.0
2015-Aug-27 22:34N 53°08' E 001°22'10 9.6
2015-Aug-27 21:34N 52°60' E 001°31'9 8.8
2015-Aug-27 20:34N 52°54' E 001°41'8 8.0
2015-Aug-27 19:33N 52°49' E 001°52'76 7.3
2015-Aug-27 09:14N 52°08' E 003°36'5 7.2
2015-Aug-27 08:33N 52°06' E 003°44'7 7.3
2015-Aug-27 07:34N 52°03' E 003°54'9 8.8
2015-Aug-27 06:34N 51°59' E 004°07'1010.3
2015-Aug-27 05:34N 51°54' E 004°22'4 4.0
2015-Aug-27 04:33N 51°54' E 004°28'0 0.0
2015-Aug-27 03:33N 51°54' E 004°28'0 0.0
2015-Aug-27 02:33N 51°54' E 004°28'0 0.0
2015-Aug-27 01:33N 51°54' E 004°28'0 0.0
2015-Aug-27 00:33N 51°54' E 004°28'0 0.0
2015-Aug-26 23:33N 51°54' E 004°28'0 0.0
2015-Aug-26 22:33N 51°54' E 004°28'0 0.0
2015-Aug-26 21:33N 51°54' E 004°28'0 0.0
2015-Aug-26 20:33N 51°54' E 004°28'0 0.0
2015-Aug-26 19:30N 51°54' E 004°28'0 0.0
2015-Aug-26 18:33N 51°54' E 004°28'0 0.0
2015-Aug-26 17:33N 51°54' E 004°28'0 0.0
2015-Aug-26 16:33N 51°54' E 004°28'0 0.0
2015-Aug-26 15:33N 51°54' E 004°28'0 0.0
2015-Aug-26 14:33N 51°54' E 004°28'0 0.0
2015-Aug-26 13:33N 51°54' E 004°28'0 0.0
2015-Aug-26 12:33N 51°54' E 004°28'0 0.0
2015-Aug-26 11:33N 51°54' E 004°28'0 0.0
2015-Aug-26 10:27N 51°54' E 004°28'0 0.0
2015-Aug-26 09:33N 51°54' E 004°28'0 0.0
2015-Aug-26 08:33N 51°54' E 004°28'2 2.0
2015-Aug-26 07:32N 51°54' E 004°25'0 0.0
2015-Aug-26 06:32N 51°54' E 004°25'0 0.0
2015-Aug-26 05:32N 51°54' E 004°25'0 0.0
2015-Aug-26 04:32N 51°54' E 004°25'0 0.0
2015-Aug-26 03:32N 51°54' E 004°25'0 0.0
2015-Aug-26 02:32N 51°54' E 004°25'0 0.0
2015-Aug-26 01:32N 51°54' E 004°25'0 0.0
2015-Aug-26 00:29N 51°54' E 004°25'0 0.0
2015-Aug-25 23:32N 51°54' E 004°25'0 0.0
2015-Aug-25 22:32N 51°54' E 004°25'0 0.0
2015-Aug-25 21:32N 51°54' E 004°25'0 0.0
2015-Aug-25 20:32N 51°54' E 004°25'0 0.0
2015-Aug-25 19:32N 51°54' E 004°25'0 0.1
2015-Aug-25 18:33N 51°54' E 004°25'2 2.0
2015-Aug-25 17:33N 51°54' E 004°28'0 0.0
2015-Aug-25 16:33N 51°54' E 004°28'0 0.0
2015-Aug-25 15:33N 51°54' E 004°28'0 0.0
2015-Aug-25 14:33N 51°54' E 004°28'0 0.0
2015-Aug-25 13:33N 51°54' E 004°28'0 0.0
2015-Aug-25 12:33N 51°54' E 004°28'0 0.0
2015-Aug-25 11:33N 51°54' E 004°28'0 0.0
2015-Aug-25 10:33N 51°54' E 004°28'0 0.0
2015-Aug-25 09:33N 51°54' E 004°28'0 0.0
2015-Aug-25 08:33N 51°54' E 004°28'0 0.0
2015-Aug-25 07:33N 51°54' E 004°28'0 0.0
2015-Aug-25 06:33N 51°54' E 004°28'0 0.0
2015-Aug-25 05:33N 51°54' E 004°28'0 0.0
2015-Aug-25 04:33N 51°54' E 004°28'0 0.0
2015-Aug-25 03:33N 51°54' E 004°28'0 0.0
2015-Aug-25 02:33N 51°54' E 004°28'0 0.0
2015-Aug-25 01:33N 51°54' E 004°28'0 0.0
2015-Aug-25 00:33N 51°54' E 004°28'0 0.0
2015-Aug-24 23:33N 51°54' E 004°28'0 0.0
2015-Aug-24 22:33N 51°54' E 004°28'0 0.0
2015-Aug-24 21:33N 51°54' E 004°28'0 0.0
2015-Aug-24 20:33N 51°54' E 004°28'0 0.0
2015-Aug-24 19:33N 51°54' E 004°28'0 0.0
2015-Aug-24 18:33N 51°54' E 004°28'0 0.0
2015-Aug-24 17:33N 51°54' E 004°28'0 0.0
2015-Aug-24 16:33N 51°54' E 004°28'0 0.0
2015-Aug-24 15:33N 51°54' E 004°28'0 0.0
2015-Aug-24 14:33N 51°54' E 004°28'0 0.0
2015-Aug-24 13:33N 51°54' E 004°28'0 0.0
2015-Aug-24 12:33N 51°54' E 004°28'0 0.0
2015-Aug-24 11:33N 51°54' E 004°28'0 0.0
2015-Aug-24 10:33N 51°54' E 004°28'0 0.0
2015-Aug-24 09:33N 51°54' E 004°28'0 0.1
2015-Aug-24 08:33N 51°54' E 004°28'0 0.0
2015-Aug-24 07:33N 51°54' E 004°28'0 0.0
2015-Aug-24 06:33N 51°54' E 004°28'0 0.0
2015-Aug-24 05:33N 51°54' E 004°28'0 0.0
2015-Aug-24 04:33N 51°54' E 004°28'0 0.0
2015-Aug-24 03:33N 51°54' E 004°28'0 0.0
2015-Aug-24 02:33N 51°54' E 004°28'0 0.0
2015-Aug-24 01:33N 51°54' E 004°28'0 0.0
2015-Aug-24 00:33N 51°54' E 004°28'0 0.0
2015-Aug-23 23:33N 51°54' E 004°28'0 0.0
2015-Aug-23 22:33N 51°54' E 004°28'0 0.0
2015-Aug-23 21:33N 51°54' E 004°28'0 0.0
2015-Aug-23 20:33N 51°54' E 004°28'0 0.0
2015-Aug-23 19:33N 51°54' E 004°28'0 0.0
2015-Aug-23 18:33N 51°54' E 004°28'0 0.0
2015-Aug-23 17:33N 51°54' E 004°28'0 0.0
2015-Aug-23 16:30N 51°54' E 004°28'0 0.0
2015-Aug-23 15:33N 51°54' E 004°28'0 0.0
2015-Aug-23 14:33N 51°54' E 004°28'0 0.0
2015-Aug-23 13:33N 51°54' E 004°28'0 0.0
2015-Aug-23 12:33N 51°54' E 004°28'0 0.0
2015-Aug-23 11:33N 51°54' E 004°28'0 0.0
2015-Aug-23 10:33N 51°54' E 004°28'0 0.0
2015-Aug-23 09:33N 51°54' E 004°28'0 0.0
2015-Aug-23 08:33N 51°54' E 004°28'0 0.0
2015-Aug-23 07:33N 51°54' E 004°28'0 0.3
2015-Aug-23 06:33N 51°54' E 004°28'9 8.7
2015-Aug-23 05:33N 51°55' E 004°14'8 8.4
2015-Aug-23 04:33N 51°60' E 004°02'8 7.6
2015-Aug-23 03:33N 52°03' E 003°51'6 5.7
2015-Aug-23 02:33N 52°08' E 003°47'6 6.0
2015-Aug-23 01:32N 52°14' E 003°46'8 7.2
2015-Aug-23 00:24N 52°22' E 003°48'7 8.5
2015-Aug-22 23:33N 52°29' E 003°50'68 7.5
2015-Aug-22 14:28N 53°29' E 004°43'6 6.3
2015-Aug-22 13:33N 53°31' E 004°52'6 5.7
2015-Aug-22 12:33N 53°34' E 005°01'5 5.3
2015-Aug-22 11:33N 53°37' E 005°08'5 5.1
2015-Aug-22 10:34N 53°40' E 005°14'5 5.2
2015-Aug-22 09:33N 53°45' E 005°19'6 5.6
2015-Aug-22 08:33N 53°49' E 005°24'6 6.1
2015-Aug-22 07:33N 53°54' E 005°30'7 6.6
2015-Aug-22 06:33N 53°60' E 005°37'7 6.7
2015-Aug-22 05:33N 54°05' E 005°45'11 8.5
2015-Aug-22 04:14N 54°09' E 006°02'6 8.9
2015-Aug-22 03:33N 54°10' E 006°12'8 8.4
2015-Aug-22 02:33N 54°11' E 006°27'8 7.7
2015-Aug-22 01:33N 54°11' E 006°40'8 7.6
2015-Aug-22 00:33N 54°11' E 006°53'8 7.6
2015-Aug-21 23:33N 54°11' E 007°06'8 8.0
2015-Aug-21 22:33N 54°11' E 007°19'9 8.6
2015-Aug-21 21:33N 54°15' E 007°33'9 9.5
2015-Aug-21 20:33N 54°20' E 007°47'10 9.6
2015-Aug-21 19:33N 54°24' E 008°02'9 9.4
2015-Aug-21 18:33N 54°29' E 008°15'10 9.9
2015-Aug-21 17:33N 54°37' E 008°25'0 0.0
2015-Aug-21 03:32N 54°37' E 008°25'0 0.0
2015-Aug-21 01:17N 54°37' E 008°25'0 0.0
2015-Aug-21 00:23N 54°37' E 008°25'0 0.1
2015-Aug-20 23:32N 54°37' E 008°25'0 0.1
2015-Aug-20 22:29N 54°37' E 008°25'0 0.0
2015-Aug-20 20:29N 54°37' E 008°25'1 0.6
2015-Aug-20 18:32N 54°36' E 008°24'7 6.8
2015-Aug-20 17:32N 54°31' E 008°17'8 8.0
2015-Aug-20 16:33N 54°23' E 008°16'9 9.0
2015-Aug-20 15:33N 54°14' E 008°20'8 8.4
2015-Aug-20 14:34N 54°06' E 008°24'7 7.0
2015-Aug-20 13:34N 54°01' E 008°32'6 6.5
2015-Aug-20 12:33N 53°56' E 008°40'6 6.0
2015-Aug-20 11:32N 53°51' E 008°45'0 0.0
2015-Aug-20 10:32N 53°51' E 008°45'0 0.0
2015-Aug-20 09:32N 53°51' E 008°45'0 0.0
2015-Aug-20 08:32N 53°51' E 008°45'0 0.0
2015-Aug-20 07:32N 53°51' E 008°45'0 0.0
2015-Aug-20 06:32N 53°51' E 008°45'0 0.0
2015-Aug-20 05:32N 53°51' E 008°45'0 0.0
2015-Aug-20 04:32N 53°51' E 008°45'0 0.0
2015-Aug-20 03:32N 53°51' E 008°45'0 0.0
2015-Aug-20 02:32N 53°51' E 008°45'0 0.0
2015-Aug-20 01:32N 53°51' E 008°45'0 0.0
2015-Aug-20 00:32N 53°51' E 008°45'0 0.0
2015-Aug-19 23:32N 53°51' E 008°45'2 2.1
2015-Aug-19 22:33N 53°53' E 008°43'7 7.5
2015-Aug-19 21:33N 53°59' E 008°35'8 7.8
2015-Aug-19 20:33N 54°03' E 008°25'7 7.3
2015-Aug-19 19:33N 54°10' E 008°23'9 9.2
2015-Aug-19 18:33N 54°19' E 008°19'9 9.0
2015-Aug-19 17:33N 54°28' E 008°15'1010.0
2015-Aug-19 16:33N 54°37' E 008°24'  
Track history (hours):
 
Tides and Currents Weather Stations Pressure Air Temp Water Temp Dewpoint Dewpoint Depression Visibility Wind Speed Wind Dir Waves Ship Positions

Dan Fighter

Last reported at 2015-Aug-29 10:33 UTC. Time now 2015-Aug-30 18:08 UTC.
Position N 57°45' W 002°04'.

Length 64 m; draft 3.1 m.

Type: Cargo ship. MMSI: 220386978.

Date/timePositionNaut miles runAvg speedWind from/ knotsBaromVisibWave heightAir tempDewpointWater temp
2015-Aug-29 10:33N 57°45' W 002°04'7 6.8
2015-Aug-29 09:34N 57°42' W 001°52'7 6.9
2015-Aug-29 08:34N 57°37' W 001°44'9 8.8
2015-Aug-29 07:34N 57°28' W 001°40'138 8.9
2015-Aug-28 16:08N 55°12' W 001°04'5 8.4
2015-Aug-28 15:33N 55°09' W 000°58'8 7.8
2015-Aug-28 14:31N 55°02' W 000°50'7 7.7
2015-Aug-28 13:33N 54°55' W 000°45'8 8.0
2015-Aug-28 12:31N 54°48' W 000°39'8 8.6
2015-Aug-28 11:33N 54°40' W 000°33'9 9.3
2015-Aug-28 10:34N 54°32' W 000°26'1010.1
2015-Aug-28 09:34N 54°23' W 000°18'1010.5
2015-Aug-28 08:34N 54°14' W 000°09'1110.9
2015-Aug-28 07:33N 54°05' E 000°02'10 9.7
2015-Aug-28 06:34N 53°59' E 000°14'8 8.4
2015-Aug-28 05:33N 53°53' E 000°25'47 7.8
2015-Aug-27 23:32N 53°16' E 001°14'1010.0
2015-Aug-27 22:34N 53°08' E 001°22'10 9.6
2015-Aug-27 21:34N 52°60' E 001°31'9 8.8
2015-Aug-27 20:34N 52°54' E 001°41'8 8.0
2015-Aug-27 19:33N 52°49' E 001°52'76 7.3
2015-Aug-27 09:14N 52°08' E 003°36'5 7.2
2015-Aug-27 08:33N 52°06' E 003°44'7 7.3
2015-Aug-27 07:34N 52°03' E 003°54'9 8.8
2015-Aug-27 06:34N 51°59' E 004°07'1010.3
2015-Aug-27 05:34N 51°54' E 004°22'4 4.0
2015-Aug-27 04:33N 51°54' E 004°28'0 0.0
2015-Aug-27 03:33N 51°54' E 004°28'0 0.0
2015-Aug-27 02:33N 51°54' E 004°28'0 0.0
2015-Aug-27 01:33N 51°54' E 004°28'0 0.0
2015-Aug-27 00:33N 51°54' E 004°28'0 0.0
2015-Aug-26 23:33N 51°54' E 004°28'0 0.0
2015-Aug-26 22:33N 51°54' E 004°28'0 0.0
2015-Aug-26 21:33N 51°54' E 004°28'0 0.0
2015-Aug-26 20:33N 51°54' E 004°28'0 0.0
2015-Aug-26 19:30N 51°54' E 004°28'0 0.0
2015-Aug-26 18:33N 51°54' E 004°28'0 0.0
2015-Aug-26 17:33N 51°54' E 004°28'0 0.0
2015-Aug-26 16:33N 51°54' E 004°28'0 0.0
2015-Aug-26 15:33N 51°54' E 004°28'0 0.0
2015-Aug-26 14:33N 51°54' E 004°28'0 0.0
2015-Aug-26 13:33N 51°54' E 004°28'0 0.0
2015-Aug-26 12:33N 51°54' E 004°28'0 0.0
2015-Aug-26 11:33N 51°54' E 004°28'0 0.0
2015-Aug-26 10:27N 51°54' E 004°28'0 0.0
2015-Aug-26 09:33N 51°54' E 004°28'0 0.0
2015-Aug-26 08:33N 51°54' E 004°28'2 2.0
2015-Aug-26 07:32N 51°54' E 004°25'0 0.0
2015-Aug-26 06:32N 51°54' E 004°25'0 0.0
2015-Aug-26 05:32N 51°54' E 004°25'0 0.0
2015-Aug-26 04:32N 51°54' E 004°25'0 0.0
2015-Aug-26 03:32N 51°54' E 004°25'0 0.0
2015-Aug-26 02:32N 51°54' E 004°25'0 0.0
2015-Aug-26 01:32N 51°54' E 004°25'0 0.0
2015-Aug-26 00:29N 51°54' E 004°25'0 0.0
2015-Aug-25 23:32N 51°54' E 004°25'0 0.0
2015-Aug-25 22:32N 51°54' E 004°25'0 0.0
2015-Aug-25 21:32N 51°54' E 004°25'0 0.0
2015-Aug-25 20:32N 51°54' E 004°25'0 0.0
2015-Aug-25 19:32N 51°54' E 004°25'0 0.1
2015-Aug-25 18:33N 51°54' E 004°25'2 2.0
2015-Aug-25 17:33N 51°54' E 004°28'0 0.0
2015-Aug-25 16:33N 51°54' E 004°28'0 0.0
2015-Aug-25 15:33N 51°54' E 004°28'0 0.0
2015-Aug-25 14:33N 51°54' E 004°28'0 0.0
2015-Aug-25 13:33N 51°54' E 004°28'0 0.0
2015-Aug-25 12:33N 51°54' E 004°28'0 0.0
2015-Aug-25 11:33N 51°54' E 004°28'0 0.0
2015-Aug-25 10:33N 51°54' E 004°28'0 0.0
2015-Aug-25 09:33N 51°54' E 004°28'0 0.0
2015-Aug-25 08:33N 51°54' E 004°28'0 0.0
2015-Aug-25 07:33N 51°54' E 004°28'0 0.0
2015-Aug-25 06:33N 51°54' E 004°28'0 0.0
2015-Aug-25 05:33N 51°54' E 004°28'0 0.0
2015-Aug-25 04:33N 51°54' E 004°28'0 0.0
2015-Aug-25 03:33N 51°54' E 004°28'0 0.0
2015-Aug-25 02:33N 51°54' E 004°28'0 0.0
2015-Aug-25 01:33N 51°54' E 004°28'0 0.0
2015-Aug-25 00:33N 51°54' E 004°28'0 0.0
2015-Aug-24 23:33N 51°54' E 004°28'0 0.0
2015-Aug-24 22:33N 51°54' E 004°28'0 0.0
2015-Aug-24 21:33N 51°54' E 004°28'0 0.0
2015-Aug-24 20:33N 51°54' E 004°28'0 0.0
2015-Aug-24 19:33N 51°54' E 004°28'0 0.0
2015-Aug-24 18:33N 51°54' E 004°28'0 0.0
2015-Aug-24 17:33N 51°54' E 004°28'0 0.0
2015-Aug-24 16:33N 51°54' E 004°28'0 0.0
2015-Aug-24 15:33N 51°54' E 004°28'0 0.0
2015-Aug-24 14:33N 51°54' E 004°28'0 0.0
2015-Aug-24 13:33N 51°54' E 004°28'0 0.0
2015-Aug-24 12:33N 51°54' E 004°28'0 0.0
2015-Aug-24 11:33N 51°54' E 004°28'0 0.0
2015-Aug-24 10:33N 51°54' E 004°28'0 0.0
2015-Aug-24 09:33N 51°54' E 004°28'0 0.1
2015-Aug-24 08:33N 51°54' E 004°28'0 0.0
2015-Aug-24 07:33N 51°54' E 004°28'0 0.0
2015-Aug-24 06:33N 51°54' E 004°28'0 0.0
2015-Aug-24 05:33N 51°54' E 004°28'0 0.0
2015-Aug-24 04:33N 51°54' E 004°28'0 0.0
2015-Aug-24 03:33N 51°54' E 004°28'0 0.0
2015-Aug-24 02:33N 51°54' E 004°28'0 0.0
2015-Aug-24 01:33N 51°54' E 004°28'0 0.0
2015-Aug-24 00:33N 51°54' E 004°28'0 0.0
2015-Aug-23 23:33N 51°54' E 004°28'0 0.0
2015-Aug-23 22:33N 51°54' E 004°28'0 0.0
2015-Aug-23 21:33N 51°54' E 004°28'0 0.0
2015-Aug-23 20:33N 51°54' E 004°28'0 0.0
2015-Aug-23 19:33N 51°54' E 004°28'0 0.0
2015-Aug-23 18:33N 51°54' E 004°28'0 0.0
2015-Aug-23 17:33N 51°54' E 004°28'0 0.0
2015-Aug-23 16:30N 51°54' E 004°28'0 0.0
2015-Aug-23 15:33N 51°54' E 004°28'0 0.0
2015-Aug-23 14:33N 51°54' E 004°28'0 0.0
2015-Aug-23 13:33N 51°54' E 004°28'0 0.0
2015-Aug-23 12:33N 51°54' E 004°28'0 0.0
2015-Aug-23 11:33N 51°54' E 004°28'0 0.0
2015-Aug-23 10:33N 51°54' E 004°28'0 0.0
2015-Aug-23 09:33N 51°54' E 004°28'0 0.0
2015-Aug-23 08:33N 51°54' E 004°28'0 0.0
2015-Aug-23 07:33N 51°54' E 004°28'0 0.3
2015-Aug-23 06:33N 51°54' E 004°28'9 8.7
2015-Aug-23 05:33N 51°55' E 004°14'8 8.4
2015-Aug-23 04:33N 51°60' E 004°02'8 7.6
2015-Aug-23 03:33N 52°03' E 003°51'6 5.7
2015-Aug-23 02:33N 52°08' E 003°47'6 6.0
2015-Aug-23 01:32N 52°14' E 003°46'8 7.2
2015-Aug-23 00:24N 52°22' E 003°48'7 8.5
2015-Aug-22 23:33N 52°29' E 003°50'68 7.5
2015-Aug-22 14:28N 53°29' E 004°43'6 6.3
2015-Aug-22 13:33N 53°31' E 004°52'6 5.7
2015-Aug-22 12:33N 53°34' E 005°01'5 5.3
2015-Aug-22 11:33N 53°37' E 005°08'5 5.1
2015-Aug-22 10:34N 53°40' E 005°14'5 5.2
2015-Aug-22 09:33N 53°45' E 005°19'6 5.6
2015-Aug-22 08:33N 53°49' E 005°24'6 6.1
2015-Aug-22 07:33N 53°54' E 005°30'7 6.6
2015-Aug-22 06:33N 53°60' E 005°37'7 6.7
2015-Aug-22 05:33N 54°05' E 005°45'11 8.5
2015-Aug-22 04:14N 54°09' E 006°02'6 8.9
2015-Aug-22 03:33N 54°10' E 006°12'8 8.4
2015-Aug-22 02:33N 54°11' E 006°27'8 7.7
2015-Aug-22 01:33N 54°11' E 006°40'8 7.6
2015-Aug-22 00:33N 54°11' E 006°53'8 7.6
2015-Aug-21 23:33N 54°11' E 007°06'8 8.0
2015-Aug-21 22:33N 54°11' E 007°19'9 8.6
2015-Aug-21 21:33N 54°15' E 007°33'9 9.5
2015-Aug-21 20:33N 54°20' E 007°47'10 9.6
2015-Aug-21 19:33N 54°24' E 008°02'9 9.4
2015-Aug-21 18:33N 54°29' E 008°15'10 9.9
2015-Aug-21 17:33N 54°37' E 008°25'0 0.0
2015-Aug-21 03:32N 54°37' E 008°25'0 0.0
2015-Aug-21 01:17N 54°37' E 008°25'0 0.0
2015-Aug-21 00:23N 54°37' E 008°25'0 0.1
2015-Aug-20 23:32N 54°37' E 008°25'0 0.1
2015-Aug-20 22:29N 54°37' E 008°25'0 0.0
2015-Aug-20 20:29N 54°37' E 008°25'1 0.6
2015-Aug-20 18:32N 54°36' E 008°24'7 6.8
2015-Aug-20 17:32N 54°31' E 008°17'8 8.0
2015-Aug-20 16:33N 54°23' E 008°16'9 9.0
2015-Aug-20 15:33N 54°14' E 008°20'8 8.4
2015-Aug-20 14:34N 54°06' E 008°24'7 7.0
2015-Aug-20 13:34N 54°01' E 008°32'6 6.5
2015-Aug-20 12:33N 53°56' E 008°40'6 6.0
2015-Aug-20 11:32N 53°51' E 008°45'0 0.0
2015-Aug-20 10:32N 53°51' E 008°45'0 0.0
2015-Aug-20 09:32N 53°51' E 008°45'0 0.0
2015-Aug-20 08:32N 53°51' E 008°45'0 0.0
2015-Aug-20 07:32N 53°51' E 008°45'0 0.0
2015-Aug-20 06:32N 53°51' E 008°45'0 0.0
2015-Aug-20 05:32N 53°51' E 008°45'0 0.0
2015-Aug-20 04:32N 53°51' E 008°45'0 0.0
2015-Aug-20 03:32N 53°51' E 008°45'0 0.0
2015-Aug-20 02:32N 53°51' E 008°45'0 0.0
2015-Aug-20 01:32N 53°51' E 008°45'0 0.0
2015-Aug-20 00:32N 53°51' E 008°45'0 0.0
2015-Aug-19 23:32N 53°51' E 008°45'2 2.1
2015-Aug-19 22:33N 53°53' E 008°43'7 7.5
2015-Aug-19 21:33N 53°59' E 008°35'8 7.8
2015-Aug-19 20:33N 54°03' E 008°25'7 7.3
2015-Aug-19 19:33N 54°10' E 008°23'9 9.2
2015-Aug-19 18:33N 54°19' E 008°19'9 9.0
2015-Aug-19 17:33N 54°28' E 008°15'1010.0
2015-Aug-19 16:33N 54°37' E 008°24'  

Dump ship's entire track history